sensor_id;sensor_type;location;lat;lon;timestamp;temperature;humidity
15359;DHT22;7779;49.596;11.070;2024-03-23T00:53:40;9.80;62.40
15359;DHT22;7779;49.596;11.070;2024-03-23T00:56:06;9.80;62.40
15359;DHT22;7779;49.596;11.070;2024-03-23T00:58:32;9.70;62.40
15359;DHT22;7779;49.596;11.070;2024-03-23T01:00:57;9.70;62.50
15359;DHT22;7779;49.596;11.070;2024-03-23T01:03:23;9.60;62.30
15359;DHT22;7779;49.596;11.070;2024-03-23T01:05:48;9.60;62.80
15359;DHT22;7779;49.596;11.070;2024-03-23T01:08:14;9.60;62.90
15359;DHT22;7779;49.596;11.070;2024-03-23T01:10:40;9.50;63.70
15359;DHT22;7779;49.596;11.070;2024-03-23T01:13:06;9.50;63.20
15359;DHT22;7779;49.596;11.070;2024-03-23T01:15:32;9.50;63.30
15359;DHT22;7779;49.596;11.070;2024-03-23T01:17:57;9.50;63.50
15359;DHT22;7779;49.596;11.070;2024-03-23T01:20:23;9.50;63.60
15359;DHT22;7779;49.596;11.070;2024-03-23T01:22:49;9.50;63.70
15359;DHT22;7779;49.596;11.070;2024-03-23T01:25:14;9.50;63.80
15359;DHT22;7779;49.596;11.070;2024-03-23T01:27:40;9.50;63.80
15359;DHT22;7779;49.596;11.070;2024-03-23T01:30:06;9.50;63.90
15359;DHT22;7779;49.596;11.070;2024-03-23T01:32:33;9.50;63.90
15359;DHT22;7779;49.596;11.070;2024-03-23T01:34:58;9.50;63.90
15359;DHT22;7779;49.596;11.070;2024-03-23T01:37:24;9.50;64.00
15359;DHT22;7779;49.596;11.070;2024-03-23T01:39:50;9.50;64.10
15359;DHT22;7779;49.596;11.070;2024-03-23T01:42:16;9.50;64.30
15359;DHT22;7779;49.596;11.070;2024-03-23T01:44:42;9.50;64.30
15359;DHT22;7779;49.596;11.070;2024-03-23T01:47:07;9.50;64.40
15359;DHT22;7779;49.596;11.070;2024-03-23T01:49:33;9.50;64.50
15359;DHT22;7779;49.596;11.070;2024-03-23T01:51:59;9.50;64.50
15359;DHT22;7779;49.596;11.070;2024-03-23T01:54:25;9.50;64.70
15359;DHT22;7779;49.596;11.070;2024-03-23T01:56:51;9.50;64.70
15359;DHT22;7779;49.596;11.070;2024-03-23T01:59:17;9.60;64.80
15359;DHT22;7779;49.596;11.070;2024-03-23T02:01:43;9.60;64.90
15359;DHT22;7779;49.596;11.070;2024-03-23T02:04:08;9.60;65.00
15359;DHT22;7779;49.596;11.070;2024-03-23T02:06:35;9.60;65.60
15359;DHT22;7779;49.596;11.070;2024-03-23T02:09:00;9.70;65.00
15359;DHT22;7779;49.596;11.070;2024-03-23T02:11:26;9.70;65.10
15359;DHT22;7779;49.596;11.070;2024-03-23T02:13:52;9.70;65.20
15359;DHT22;7779;49.596;11.070;2024-03-23T02:16:18;9.70;65.20
15359;DHT22;7779;49.596;11.070;2024-03-23T02:18:44;9.70;65.30
15359;DHT22;7779;49.596;11.070;2024-03-23T02:21:10;9.80;65.40
15359;DHT22;7779;49.596;11.070;2024-03-23T02:23:35;9.80;65.40
15359;DHT22;7779;49.596;11.070;2024-03-23T02:26:01;9.90;66.40
15359;DHT22;7779;49.596;11.070;2024-03-23T02:28:27;9.90;65.50
15359;DHT22;7779;49.596;11.070;2024-03-23T02:30:53;9.90;65.50
15359;DHT22;7779;49.596;11.070;2024-03-23T02:33:18;10.00;64.50
15359;DHT22;7779;49.596;11.070;2024-03-23T02:35:45;10.00;64.50
15359;DHT22;7779;49.596;11.070;2024-03-23T02:38:11;10.00;64.50
15359;DHT22;7779;49.596;11.070;2024-03-23T02:40:37;10.10;64.50
15359;DHT22;7779;49.596;11.070;2024-03-23T02:43:03;10.10;64.60
15359;DHT22;7779;49.596;11.070;2024-03-23T02:45:30;10.20;64.70
15359;DHT22;7779;49.596;11.070;2024-03-23T02:47:56;10.20;64.70
15359;DHT22;7779;49.596;11.070;2024-03-23T02:50:22;10.20;64.70
15359;DHT22;7779;49.596;11.070;2024-03-23T02:52:48;10.30;64.70
15359;DHT22;7779;49.596;11.070;2024-03-23T02:55:14;10.30;64.70
15359;DHT22;7779;49.596;11.070;2024-03-23T02:57:41;10.30;64.70
15359;DHT22;7779;49.596;11.070;2024-03-23T03:00:07;10.40;64.80
15359;DHT22;7779;49.596;11.070;2024-03-23T03:02:34;10.40;64.70
15359;DHT22;7779;49.596;11.070;2024-03-23T03:05:00;10.40;64.70
15359;DHT22;7779;49.596;11.070;2024-03-23T03:07:25;10.50;64.80
15359;DHT22;7779;49.596;11.070;2024-03-23T03:09:51;10.50;64.80
15359;DHT22;7779;49.596;11.070;2024-03-23T03:12:17;10.60;64.90
15359;DHT22;7779;49.596;11.070;2024-03-23T03:14:43;10.60;64.90
15359;DHT22;7779;49.596;11.070;2024-03-23T03:17:08;10.60;65.00
15359;DHT22;7779;49.596;11.070;2024-03-23T03:19:34;10.60;65.00
15359;DHT22;7779;49.596;11.070;2024-03-23T03:22:00;10.70;65.80
15359;DHT22;7779;49.596;11.070;2024-03-23T03:24:26;10.70;65.00
15359;DHT22;7779;49.596;11.070;2024-03-23T03:26:51;10.80;65.10
15359;DHT22;7779;49.596;11.070;2024-03-23T03:29:17;10.80;65.10
15359;DHT22;7779;49.596;11.070;2024-03-23T03:31:43;10.90;65.10
15359;DHT22;7779;49.596;11.070;2024-03-23T03:34:09;10.90;65.00
15359;DHT22;7779;49.596;11.070;2024-03-23T03:36:35;10.90;65.00
15359;DHT22;7779;49.596;11.070;2024-03-23T03:39:01;10.90;64.90
15359;DHT22;7779;49.596;11.070;2024-03-23T03:41:28;11.00;65.40
15359;DHT22;7779;49.596;11.070;2024-03-23T03:43:54;11.00;64.80
15359;DHT22;7779;49.596;11.070;2024-03-23T03:46:20;11.00;64.70
15359;DHT22;7779;49.596;11.070;2024-03-23T03:48:46;11.00;64.60
15359;DHT22;7779;49.596;11.070;2024-03-23T03:51:13;11.00;64.40
15359;DHT22;7779;49.596;11.070;2024-03-23T03:53:39;11.00;64.30
15359;DHT22;7779;49.596;11.070;2024-03-23T03:56:05;11.00;64.20
15359;DHT22;7779;49.596;11.070;2024-03-23T03:58:32;11.00;64.10
15359;DHT22;7779;49.596;11.070;2024-03-23T04:00:57;11.00;64.00
15359;DHT22;7779;49.596;11.070;2024-03-23T04:03:23;10.90;63.90
15359;DHT22;7779;49.596;11.070;2024-03-23T04:05:55;10.90;63.80
15359;DHT22;7779;49.596;11.070;2024-03-23T04:08:21;10.80;63.80
15359;DHT22;7779;49.596;11.070;2024-03-23T04:10:47;10.80;63.60
15359;DHT22;7779;49.596;11.070;2024-03-23T04:13:13;10.70;63.60
15359;DHT22;7779;49.596;11.070;2024-03-23T04:15:40;10.60;63.50
15359;DHT22;7779;49.596;11.070;2024-03-23T04:18:06;10.60;63.60
15359;DHT22;7779;49.596;11.070;2024-03-23T04:20:32;10.60;63.60
15359;DHT22;7779;49.596;11.070;2024-03-23T04:22:58;10.50;63.50
15359;DHT22;7779;49.596;11.070;2024-03-23T04:25:24;10.50;63.60
15359;DHT22;7779;49.596;11.070;2024-03-23T04:27:50;10.40;63.70
15359;DHT22;7779;49.596;11.070;2024-03-23T04:30:16;10.40;63.80
15359;DHT22;7779;49.596;11.070;2024-03-23T04:32:43;10.30;63.80
15359;DHT22;7779;49.596;11.070;2024-03-23T04:35:09;10.30;63.90
15359;DHT22;7779;49.596;11.070;2024-03-23T04:37:38;10.20;64.00
15359;DHT22;7779;49.596;11.070;2024-03-23T04:40:07;10.20;64.20
15359;DHT22;7779;49.596;11.070;2024-03-23T04:42:33;10.20;64.40
15359;DHT22;7779;49.596;11.070;2024-03-23T04:44:59;10.20;64.50
15359;DHT22;7779;49.596;11.070;2024-03-23T04:47:26;10.20;64.70
15359;DHT22;7779;49.596;11.070;2024-03-23T04:49:52;10.20;64.90
15359;DHT22;7779;49.596;11.070;2024-03-23T04:52:18;10.20;65.00
15359;DHT22;7779;49.596;11.070;2024-03-23T04:54:44;10.30;65.30
15359;DHT22;7779;49.596;11.070;2024-03-23T04:57:11;10.30;65.30
15359;DHT22;7779;49.596;11.070;2024-03-23T04:59:37;10.40;65.50
15359;DHT22;7779;49.596;11.070;2024-03-23T05:02:02;10.40;65.40
15359;DHT22;7779;49.596;11.070;2024-03-23T05:04:28;10.40;65.50
15359;DHT22;7779;49.596;11.070;2024-03-23T05:06:54;10.50;65.60
15359;DHT22;7779;49.596;11.070;2024-03-23T05:09:20;10.60;65.80
15359;DHT22;7779;49.596;11.070;2024-03-23T05:11:46;10.60;65.80
15359;DHT22;7779;49.596;11.070;2024-03-23T05:14:13;10.60;65.80
15359;DHT22;7779;49.596;11.070;2024-03-23T05:16:39;10.60;66.00
15359;DHT22;7779;49.596;11.070;2024-03-23T05:19:06;10.60;66.00
15359;DHT22;7779;49.596;11.070;2024-03-23T05:21:31;10.70;66.00
15359;DHT22;7779;49.596;11.070;2024-03-23T05:23:57;10.70;66.00
15359;DHT22;7779;49.596;11.070;2024-03-23T05:26:23;10.80;66.20
15359;DHT22;7779;49.596;11.070;2024-03-23T05:28:48;10.80;66.30
15359;DHT22;7779;49.596;11.070;2024-03-23T05:31:27;10.80;66.30
15359;DHT22;7779;49.596;11.070;2024-03-23T05:33:55;10.90;66.90
15359;DHT22;7779;49.596;11.070;2024-03-23T05:36:21;10.90;66.30
15359;DHT22;7779;49.596;11.070;2024-03-23T05:38:47;10.90;66.30
15359;DHT22;7779;49.596;11.070;2024-03-23T05:41:13;11.00;66.50
15359;DHT22;7779;49.596;11.070;2024-03-23T05:43:39;11.00;67.10
15359;DHT22;7779;49.596;11.070;2024-03-23T05:46:05;11.00;66.40
15359;DHT22;7779;49.596;11.070;2024-03-23T05:48:31;11.10;66.50
15359;DHT22;7779;49.596;11.070;2024-03-23T05:50:57;11.10;66.50
15359;DHT22;7779;49.596;11.070;2024-03-23T05:53:24;11.10;66.40
15359;DHT22;7779;49.596;11.070;2024-03-23T05:55:51;11.10;66.40
15359;DHT22;7779;49.596;11.070;2024-03-23T05:58:19;11.20;66.50
15359;DHT22;7779;49.596;11.070;2024-03-23T06:00:46;11.20;66.50
15359;DHT22;7779;49.596;11.070;2024-03-23T06:03:11;11.20;66.50
15359;DHT22;7779;49.596;11.070;2024-03-23T06:05:38;11.30;66.60
15359;DHT22;7779;49.596;11.070;2024-03-23T06:08:04;11.30;66.50
15359;DHT22;7779;49.596;11.070;2024-03-23T06:10:30;11.30;67.10
15359;DHT22;7779;49.596;11.070;2024-03-23T06:12:57;11.30;66.50
15359;DHT22;7779;49.596;11.070;2024-03-23T06:15:24;11.40;66.60
15359;DHT22;7779;49.596;11.070;2024-03-23T06:17:50;11.40;66.60
15359;DHT22;7779;49.596;11.070;2024-03-23T06:20:16;11.40;66.70
15359;DHT22;7779;49.596;11.070;2024-03-23T06:22:41;11.40;67.10
15359;DHT22;7779;49.596;11.070;2024-03-23T06:25:07;11.40;66.50
15359;DHT22;7779;49.596;11.070;2024-03-23T06:27:33;11.50;66.70
15359;DHT22;7779;49.596;11.070;2024-03-23T06:30:00;11.50;67.30
15359;DHT22;7779;49.596;11.070;2024-03-23T06:32:27;11.50;66.70
15359;DHT22;7779;49.596;11.070;2024-03-23T06:34:54;11.60;66.80
15359;DHT22;7779;49.596;11.070;2024-03-23T06:37:20;11.60;66.80
15359;DHT22;7779;49.596;11.070;2024-03-23T06:39:46;11.60;66.90
15359;DHT22;7779;49.596;11.070;2024-03-23T06:42:12;11.70;66.90
15359;DHT22;7779;49.596;11.070;2024-03-23T06:44:38;11.70;67.00
15359;DHT22;7779;49.596;11.070;2024-03-23T06:47:05;11.70;67.00
15359;DHT22;7779;49.596;11.070;2024-03-23T06:49:31;11.80;67.10
15359;DHT22;7779;49.596;11.070;2024-03-23T06:51:56;11.80;67.10
15359;DHT22;7779;49.596;11.070;2024-03-23T06:54:22;11.90;67.20
15359;DHT22;7779;49.596;11.070;2024-03-23T06:56:49;11.90;67.20
15359;DHT22;7779;49.596;11.070;2024-03-23T06:59:15;11.90;67.60
15359;DHT22;7779;49.596;11.070;2024-03-23T07:01:41;11.90;67.20
15359;DHT22;7779;49.596;11.070;2024-03-23T07:04:07;12.00;67.20
15359;DHT22;7779;49.596;11.070;2024-03-23T07:06:33;12.10;67.20
15359;DHT22;7779;49.596;11.070;2024-03-23T07:08:59;12.10;67.10
15359;DHT22;7779;49.596;11.070;2024-03-23T07:11:25;12.10;66.80
15359;DHT22;7779;49.596;11.070;2024-03-23T07:13:52;12.20;67.00
15359;DHT22;7779;49.596;11.070;2024-03-23T07:16:20;12.20;66.80
15359;DHT22;7779;49.596;11.070;2024-03-23T07:18:46;12.30;66.80
15359;DHT22;7779;49.596;11.070;2024-03-23T07:21:12;12.30;66.60
15359;DHT22;7779;49.596;11.070;2024-03-23T07:23:38;12.40;66.60
15359;DHT22;7779;49.596;11.070;2024-03-23T07:26:05;12.40;66.50
15359;DHT22;7779;49.596;11.070;2024-03-23T07:28:31;12.40;66.30
15359;DHT22;7779;49.596;11.070;2024-03-23T07:31:05;12.40;66.10
15359;DHT22;7779;49.596;11.070;2024-03-23T07:33:32;12.50;66.30
15359;DHT22;7779;49.596;11.070;2024-03-23T07:35:59;12.50;66.00
15359;DHT22;7779;49.596;11.070;2024-03-23T07:38:26;12.50;66.00
15359;DHT22;7779;49.596;11.070;2024-03-23T07:41:05;12.50;65.90
15359;DHT22;7779;49.596;11.070;2024-03-23T07:43:36;12.50;66.10
15359;DHT22;7779;49.596;11.070;2024-03-23T07:46:03;12.50;65.90
15359;DHT22;7779;49.596;11.070;2024-03-23T07:48:29;12.50;66.00
15359;DHT22;7779;49.596;11.070;2024-03-23T07:50:59;12.50;66.10
15359;DHT22;7779;49.596;11.070;2024-03-23T07:53:26;12.50;66.30
15359;DHT22;7779;49.596;11.070;2024-03-23T07:55:54;12.50;66.10
15359;DHT22;7779;49.596;11.070;2024-03-23T07:58:21;12.50;66.10
15359;DHT22;7779;49.596;11.070;2024-03-23T08:00:47;12.50;66.10
15359;DHT22;7779;49.596;11.070;2024-03-23T08:03:13;12.50;66.20
15359;DHT22;7779;49.596;11.070;2024-03-23T08:05:39;12.50;66.30
15359;DHT22;7779;49.596;11.070;2024-03-23T08:08:05;12.50;66.20
15359;DHT22;7779;49.596;11.070;2024-03-23T08:10:31;12.50;66.30
15359;DHT22;7779;49.596;11.070;2024-03-23T08:12:56;12.50;66.30
15359;DHT22;7779;49.596;11.070;2024-03-23T08:15:23;12.50;66.30
15359;DHT22;7779;49.596;11.070;2024-03-23T08:17:50;12.50;66.00
15359;DHT22;7779;49.596;11.070;2024-03-23T08:20:16;12.50;66.20
15359;DHT22;7779;49.596;11.070;2024-03-23T08:22:41;12.50;66.00
15359;DHT22;7779;49.596;11.070;2024-03-23T08:25:07;12.50;65.80
15359;DHT22;7779;49.596;11.070;2024-03-23T08:27:33;12.40;65.40
15359;DHT22;7779;49.596;11.070;2024-03-23T08:29:58;12.40;65.20
15359;DHT22;7779;49.596;11.070;2024-03-23T08:32:24;12.40;65.20
15359;DHT22;7779;49.596;11.070;2024-03-23T08:34:50;12.40;65.30
15359;DHT22;7779;49.596;11.070;2024-03-23T08:37:16;12.40;65.50
15359;DHT22;7779;49.596;11.070;2024-03-23T08:39:43;12.40;65.40
15359;DHT22;7779;49.596;11.070;2024-03-23T08:42:09;12.30;65.00
15359;DHT22;7779;49.596;11.070;2024-03-23T08:44:34;12.40;65.00
15359;DHT22;7779;49.596;11.070;2024-03-23T08:47:01;12.40;64.80
15359;DHT22;7779;49.596;11.070;2024-03-23T08:49:27;12.40;64.40
15359;DHT22;7779;49.596;11.070;2024-03-23T08:51:53;12.40;64.20
15359;DHT22;7779;49.596;11.070;2024-03-23T08:54:20;12.40;64.60
15359;DHT22;7779;49.596;11.070;2024-03-23T08:56:47;12.40;63.70
15359;DHT22;7779;49.596;11.070;2024-03-23T08:59:14;12.30;63.20
15359;DHT22;7779;49.596;11.070;2024-03-23T09:01:39;12.20;61.80
15359;DHT22;7779;49.596;11.070;2024-03-23T09:04:05;12.20;62.80
15359;DHT22;7779;49.596;11.070;2024-03-23T09:06:31;12.10;62.70
15359;DHT22;7779;49.596;11.070;2024-03-23T09:08:57;12.00;62.60
15359;DHT22;7779;49.596;11.070;2024-03-23T09:11:22;12.00;62.70
15359;DHT22;7779;49.596;11.070;2024-03-23T09:13:48;11.90;62.70
15359;DHT22;7779;49.596;11.070;2024-03-23T09:16:14;11.80;62.60
15359;DHT22;7779;49.596;11.070;2024-03-23T09:18:40;11.80;62.70
15359;DHT22;7779;49.596;11.070;2024-03-23T09:21:12;11.70;62.80
15359;DHT22;7779;49.596;11.070;2024-03-23T09:23:39;11.70;62.70
15359;DHT22;7779;49.596;11.070;2024-03-23T09:26:05;11.70;63.00
15359;DHT22;7779;49.596;11.070;2024-03-23T09:28:33;11.70;63.20
15359;DHT22;7779;49.596;11.070;2024-03-23T09:31:03;11.70;63.40
15359;DHT22;7779;49.596;11.070;2024-03-23T09:33:29;11.80;63.20
15359;DHT22;7779;49.596;11.070;2024-03-23T09:35:55;11.90;63.60
15359;DHT22;7779;49.596;11.070;2024-03-23T09:38:22;11.90;63.10
15359;DHT22;7779;49.596;11.070;2024-03-23T09:40:50;12.00;62.70
15359;DHT22;7779;49.596;11.070;2024-03-23T09:43:18;12.00;61.10
15359;DHT22;7779;49.596;11.070;2024-03-23T09:45:45;12.00;62.30
15359;DHT22;7779;49.596;11.070;2024-03-23T09:48:12;12.00;62.20
15359;DHT22;7779;49.596;11.070;2024-03-23T09:50:45;12.10;62.20
15359;DHT22;7779;49.596;11.070;2024-03-23T09:53:12;12.10;61.60
15359;DHT22;7779;49.596;11.070;2024-03-23T09:55:40;12.20;61.80
15359;DHT22;7779;49.596;11.070;2024-03-23T09:58:08;12.20;62.20
15359;DHT22;7779;49.596;11.070;2024-03-23T10:00:38;12.30;61.50
15359;DHT22;7779;49.596;11.070;2024-03-23T10:03:04;12.30;61.10
15359;DHT22;7779;49.596;11.070;2024-03-23T10:05:32;12.30;61.10
15359;DHT22;7779;49.596;11.070;2024-03-23T10:08:18;12.40;61.00
15359;DHT22;7779;49.596;11.070;2024-03-23T10:10:46;12.30;59.20
15359;DHT22;7779;49.596;11.070;2024-03-23T10:13:24;12.30;58.40
15359;DHT22;7779;49.596;11.070;2024-03-23T10:15:56;12.30;59.30
15359;DHT22;7779;49.596;11.070;2024-03-23T10:18:23;12.30;59.30
15359;DHT22;7779;49.596;11.070;2024-03-23T10:23:36;12.30;58.90
15359;DHT22;7779;49.596;11.070;2024-03-23T10:26:23;12.20;58.90
15359;DHT22;7779;49.596;11.070;2024-03-23T10:28:57;12.20;58.40
15359;DHT22;7779;49.596;11.070;2024-03-23T10:31:32;12.20;59.00
15359;DHT22;7779;49.596;11.070;2024-03-23T10:33:58;12.20;59.40
15359;DHT22;7779;49.596;11.070;2024-03-23T10:36:26;12.20;59.70
15359;DHT22;7779;49.596;11.070;2024-03-23T10:38:54;12.30;59.70
15359;DHT22;7779;49.596;11.070;2024-03-23T10:41:20;12.30;59.50
15359;DHT22;7779;49.596;11.070;2024-03-23T10:43:47;12.40;59.30
15359;DHT22;7779;49.596;11.070;2024-03-23T10:46:13;12.40;59.10
15359;DHT22;7779;49.596;11.070;2024-03-23T10:48:39;12.50;59.20
15359;DHT22;7779;49.596;11.070;2024-03-23T10:51:07;12.50;59.00
15359;DHT22;7779;49.596;11.070;2024-03-23T10:53:34;12.60;58.50
15359;DHT22;7779;49.596;11.070;2024-03-23T10:56:02;12.60;58.50
15359;DHT22;7779;49.596;11.070;2024-03-23T10:58:46;12.70;58.70
15359;DHT22;7779;49.596;11.070;2024-03-23T11:01:14;12.80;58.00
15359;DHT22;7779;49.596;11.070;2024-03-23T11:03:47;12.80;58.10
15359;DHT22;7779;49.596;11.070;2024-03-23T11:06:34;12.80;57.30
15359;DHT22;7779;49.596;11.070;2024-03-23T11:09:03;12.80;56.20
15359;DHT22;7779;49.596;11.070;2024-03-23T11:11:29;12.80;57.10
15359;DHT22;7779;49.596;11.070;2024-03-23T11:13:57;12.80;57.20
15359;DHT22;7779;49.596;11.070;2024-03-23T11:16:25;12.80;57.00
15359;DHT22;7779;49.596;11.070;2024-03-23T11:19:34;12.80;56.90
15359;DHT22;7779;49.596;11.070;2024-03-23T11:22:00;12.70;55.90
15359;DHT22;7779;49.596;11.070;2024-03-23T11:24:26;12.70;57.20
15359;DHT22;7779;49.596;11.070;2024-03-23T11:26:52;12.60;56.70
15359;DHT22;7779;49.596;11.070;2024-03-23T11:29:18;12.60;56.60
15359;DHT22;7779;49.596;11.070;2024-03-23T11:31:51;12.60;56.60
15359;DHT22;7779;49.596;11.070;2024-03-23T11:34:18;12.60;56.30
15359;DHT22;7779;49.596;11.070;2024-03-23T11:36:46;12.60;56.80
15359;DHT22;7779;49.596;11.070;2024-03-23T11:39:17;12.60;56.90
15359;DHT22;7779;49.596;11.070;2024-03-23T11:41:55;12.60;56.50
15359;DHT22;7779;49.596;11.070;2024-03-23T11:44:28;12.70;56.20
15359;DHT22;7779;49.596;11.070;2024-03-23T11:46:53;12.70;56.40
15359;DHT22;7779;49.596;11.070;2024-03-23T11:49:32;12.70;56.40
15359;DHT22;7779;49.596;11.070;2024-03-23T11:51:58;12.80;56.60
15359;DHT22;7779;49.596;11.070;2024-03-23T11:54:25;12.70;56.40
15359;DHT22;7779;49.596;11.070;2024-03-23T11:57:01;12.70;56.00
15359;DHT22;7779;49.596;11.070;2024-03-23T11:59:37;12.70;55.20
15359;DHT22;7779;49.596;11.070;2024-03-23T12:02:10;12.70;53.40
15359;DHT22;7779;49.596;11.070;2024-03-23T12:04:37;12.70;55.10
15359;DHT22;7779;49.596;11.070;2024-03-23T12:07:18;12.70;55.50
15359;DHT22;7779;49.596;11.070;2024-03-23T12:09:46;12.70;54.50
15359;DHT22;7779;49.596;11.070;2024-03-23T12:12:17;12.70;55.50
15359;DHT22;7779;49.596;11.070;2024-03-23T12:14:44;12.80;55.30
15359;DHT22;7779;49.596;11.070;2024-03-23T12:17:15;12.80;55.00
15359;DHT22;7779;49.596;11.070;2024-03-23T12:19:41;12.80;54.60
15359;DHT22;7779;49.596;11.070;2024-03-23T12:22:08;12.80;54.40
15359;DHT22;7779;49.596;11.070;2024-03-23T12:24:34;12.80;54.20
15359;DHT22;7779;49.596;11.070;2024-03-23T12:27:04;12.80;54.00
15359;DHT22;7779;49.596;11.070;2024-03-23T12:29:34;12.70;53.50
15359;DHT22;7779;49.596;11.070;2024-03-23T12:32:01;12.70;53.60
15359;DHT22;7779;49.596;11.070;2024-03-23T12:34:28;12.70;54.10
15359;DHT22;7779;49.596;11.070;2024-03-23T12:36:55;12.70;54.30
15359;DHT22;7779;49.596;11.070;2024-03-23T12:39:22;12.70;54.20
15359;DHT22;7779;49.596;11.070;2024-03-23T12:41:48;12.80;52.30
15359;DHT22;7779;49.596;11.070;2024-03-23T12:44:14;12.80;54.00
15359;DHT22;7779;49.596;11.070;2024-03-23T12:46:41;12.90;53.90
15359;DHT22;7779;49.596;11.070;2024-03-23T12:49:08;13.00;53.90
15359;DHT22;7779;49.596;11.070;2024-03-23T12:51:33;13.00;53.70
15359;DHT22;7779;49.596;11.070;2024-03-23T12:53:59;13.10;53.90
15359;DHT22;7779;49.596;11.070;2024-03-23T12:56:25;13.20;53.70
15359;DHT22;7779;49.596;11.070;2024-03-23T12:58:53;13.30;53.70
15359;DHT22;7779;49.596;11.070;2024-03-23T13:01:21;13.40;53.90
15359;DHT22;7779;49.596;11.070;2024-03-23T13:03:47;13.50;53.40
15359;DHT22;7779;49.596;11.070;2024-03-23T13:06:13;13.60;53.20
15359;DHT22;7779;49.596;11.070;2024-03-23T13:08:39;13.70;52.90
15359;DHT22;7779;49.596;11.070;2024-03-23T13:11:06;13.80;52.70
15359;DHT22;7779;49.596;11.070;2024-03-23T13:13:34;13.80;52.10
15359;DHT22;7779;49.596;11.070;2024-03-23T13:16:00;13.80;51.60
15359;DHT22;7779;49.596;11.070;2024-03-23T13:18:26;13.80;51.50
15359;DHT22;7779;49.596;11.070;2024-03-23T13:20:51;13.80;51.30
15359;DHT22;7779;49.596;11.070;2024-03-23T13:23:17;13.80;49.00
15359;DHT22;7779;49.596;11.070;2024-03-23T13:25:50;13.70;51.00
15359;DHT22;7779;49.596;11.070;2024-03-23T13:28:21;13.70;50.20
15359;DHT22;7779;49.596;11.070;2024-03-23T13:30:54;13.70;51.00
15359;DHT22;7779;49.596;11.070;2024-03-23T13:33:21;13.70;50.40
15359;DHT22;7779;49.596;11.070;2024-03-23T13:35:55;13.70;51.20
15359;DHT22;7779;49.596;11.070;2024-03-23T13:38:22;13.70;50.20
15359;DHT22;7779;49.596;11.070;2024-03-23T13:40:55;13.70;50.30
15359;DHT22;7779;49.596;11.070;2024-03-23T13:43:23;13.70;49.70
15359;DHT22;7779;49.596;11.070;2024-03-23T13:45:54;13.70;50.00
15359;DHT22;7779;49.596;11.070;2024-03-23T13:48:23;13.60;49.40
15359;DHT22;7779;49.596;11.070;2024-03-23T13:51:03;13.60;49.30
15359;DHT22;7779;49.596;11.070;2024-03-23T13:53:30;13.50;48.20
15359;DHT22;7779;49.596;11.070;2024-03-23T13:55:56;13.50;49.30
15359;DHT22;7779;49.596;11.070;2024-03-23T13:58:22;13.40;49.00
15359;DHT22;7779;49.596;11.070;2024-03-23T14:00:51;13.30;49.00
15359;DHT22;7779;49.596;11.070;2024-03-23T14:03:17;13.20;49.10
15359;DHT22;7779;49.596;11.070;2024-03-23T14:05:46;13.20;48.40
15359;DHT22;7779;49.596;11.070;2024-03-23T14:08:12;13.10;48.90
15359;DHT22;7779;49.596;11.070;2024-03-23T14:10:42;13.10;48.80
15359;DHT22;7779;49.596;11.070;2024-03-23T14:13:07;13.00;48.80
15359;DHT22;7779;49.596;11.070;2024-03-23T14:15:33;13.00;49.30
15359;DHT22;7779;49.596;11.070;2024-03-23T14:17:59;13.00;49.10
15359;DHT22;7779;49.596;11.070;2024-03-23T14:20:25;13.00;49.30
15359;DHT22;7779;49.596;11.070;2024-03-23T14:22:52;12.90;49.00
15359;DHT22;7779;49.596;11.070;2024-03-23T14:25:18;12.90;49.10
15359;DHT22;7779;49.596;11.070;2024-03-23T14:27:45;12.90;48.70
15359;DHT22;7779;49.596;11.070;2024-03-23T14:30:11;12.90;48.80
15359;DHT22;7779;49.596;11.070;2024-03-23T14:32:38;12.80;47.60
15359;DHT22;7779;49.596;11.070;2024-03-23T14:35:05;12.80;49.10
15359;DHT22;7779;49.596;11.070;2024-03-23T14:37:32;12.70;49.00
15359;DHT22;7779;49.596;11.070;2024-03-23T14:39:58;12.70;49.10
15359;DHT22;7779;49.596;11.070;2024-03-23T14:42:25;12.60;49.10
15359;DHT22;7779;49.596;11.070;2024-03-23T14:44:51;12.60;49.40
15359;DHT22;7779;49.596;11.070;2024-03-23T14:47:18;12.50;49.40
15359;DHT22;7779;49.596;11.070;2024-03-23T14:49:44;12.50;49.50
15359;DHT22;7779;49.596;11.070;2024-03-23T14:52:16;12.50;48.40
15359;DHT22;7779;49.596;11.070;2024-03-23T14:54:42;12.50;49.60
15359;DHT22;7779;49.596;11.070;2024-03-23T14:57:09;12.40;49.50
15359;DHT22;7779;49.596;11.070;2024-03-23T14:59:35;12.40;49.70
15359;DHT22;7779;49.596;11.070;2024-03-23T15:02:01;12.40;49.50
15359;DHT22;7779;49.596;11.070;2024-03-23T15:04:27;12.40;49.40
15359;DHT22;7779;49.596;11.070;2024-03-23T15:06:53;12.30;49.30
15359;DHT22;7779;49.596;11.070;2024-03-23T15:09:19;12.30;49.50
15359;DHT22;7779;49.596;11.070;2024-03-23T15:11:44;12.20;49.50
15359;DHT22;7779;49.596;11.070;2024-03-23T15:14:10;12.20;49.70
15359;DHT22;7779;49.596;11.070;2024-03-23T15:16:37;12.10;49.70
15359;DHT22;7779;49.596;11.070;2024-03-23T15:19:02;12.10;49.90
15359;DHT22;7779;49.596;11.070;2024-03-23T15:21:30;12.00;50.00
15359;DHT22;7779;49.596;11.070;2024-03-23T15:23:57;12.00;50.20
15359;DHT22;7779;49.596;11.070;2024-03-23T15:26:23;11.90;50.40
15359;DHT22;7779;49.596;11.070;2024-03-23T15:28:49;11.80;50.50
15359;DHT22;7779;49.596;11.070;2024-03-23T15:31:24;11.70;50.70
15359;DHT22;7779;49.596;11.070;2024-03-23T15:33:50;11.60;51.10
15359;DHT22;7779;49.596;11.070;2024-03-23T15:36:16;11.50;51.60
15359;DHT22;7779;49.596;11.070;2024-03-23T15:38:43;11.40;52.10
15359;DHT22;7779;49.596;11.070;2024-03-23T15:41:09;11.20;53.00
15359;DHT22;7779;49.596;11.070;2024-03-23T15:43:35;11.20;52.60
15359;DHT22;7779;49.596;11.070;2024-03-23T15:46:03;11.10;52.80
15359;DHT22;7779;49.596;11.070;2024-03-23T15:48:30;11.00;52.80
15359;DHT22;7779;49.596;11.070;2024-03-23T15:50:58;10.90;52.90
15359;DHT22;7779;49.596;11.070;2024-03-23T15:53:26;10.80;52.60
15359;DHT22;7779;49.596;11.070;2024-03-23T15:55:57;10.70;52.80
15359;DHT22;7779;49.596;11.070;2024-03-23T15:58:32;10.60;52.90
15359;DHT22;7779;49.596;11.070;2024-03-23T16:03:30;10.50;52.90
15359;DHT22;7779;49.596;11.070;2024-03-23T16:06:08;10.40;52.90
15359;DHT22;7779;49.596;11.070;2024-03-23T16:08:34;10.40;53.00
15359;DHT22;7779;49.596;11.070;2024-03-23T16:11:04;10.30;53.00
15359;DHT22;7779;49.596;11.070;2024-03-23T16:13:31;10.30;53.20
15359;DHT22;7779;49.596;11.070;2024-03-23T16:15:59;10.20;53.20
15359;DHT22;7779;49.596;11.070;2024-03-23T16:18:32;10.20;53.40
15359;DHT22;7779;49.596;11.070;2024-03-23T16:21:00;10.20;53.60
15359;DHT22;7779;49.596;11.070;2024-03-23T16:23:28;10.20;53.70
15359;DHT22;7779;49.596;11.070;2024-03-23T16:25:55;10.20;53.70
15359;DHT22;7779;49.596;11.070;2024-03-23T16:28:28;10.20;53.70
15359;DHT22;7779;49.596;11.070;2024-03-23T16:31:02;10.20;53.50